Archival Weather

Norman Y Mineta San Jose Intl

San Jose, California (KSJC)

Report from: Wednesday, February 28, 2024 6:53 PM PST
Current time: Friday, June 14, 2024 4:24 AM PDT

Current weather – Weather history – Daily summaries
Weather forecast

Temperature14.4°C (57.9°F)
Dew point8.3°C (46.9°F)
Winds 8 kts (4.1 m/s, 9.2 mph) North-Northwest (340°)
Visibility10 mi. (16.1 km)
Clouds Sky clear
Altimeter30.00 in.Hg (1016 mB)
Relative humidity67 %
Density altitude-0 ft. (-0 m)
Sea-level pressure101.6 kPa (1016 mB, 30.00 in.Hg)
Remarks Automated weather observing station with precipitation discriminator
Pressure rising more quickly
Flight conditions Visual Meteorological Conditions
Raw dataKSJC 290253Z 34008KT 10SM CLR 14/08 A3000 RMK AO2 SLP158 T01440083 53003
An error has occurred. This application may no longer respond until reloaded. Reload 🗙